createdAt,value
2018-03-15T00:01:57.887Z,91.00
2018-03-15T00:04:25.332Z,90.90
2018-03-15T00:06:52.791Z,90.80
2018-03-15T00:09:20.226Z,91.10
2018-03-15T00:11:47.684Z,91.10
2018-03-15T00:14:15.108Z,91.10
2018-03-15T00:16:42.544Z,90.90
2018-03-15T00:19:10.004Z,91.30
2018-03-15T00:21:38.255Z,91.00
2018-03-15T00:24:05.693Z,91.00
2018-03-15T00:26:33.204Z,91.10
2018-03-15T00:29:00.639Z,91.10
2018-03-15T00:31:28.088Z,91.40
2018-03-15T00:33:55.521Z,91.50
2018-03-15T00:36:22.978Z,91.40
2018-03-15T00:38:50.401Z,91.40
2018-03-15T00:41:17.892Z,91.50
2018-03-15T00:43:45.339Z,91.80
2018-03-15T00:46:12.772Z,91.80
2018-03-15T00:48:40.320Z,91.90
2018-03-15T00:51:07.768Z,91.50
2018-03-15T00:53:35.256Z,91.60
2018-03-15T00:56:02.651Z,91.70
2018-03-15T00:58:30.093Z,91.90
2018-03-15T01:00:57.555Z,91.50
2018-03-15T01:03:24.996Z,91.60
2018-03-15T01:05:52.432Z,91.90
2018-03-15T01:08:19.891Z,91.70
2018-03-15T01:10:47.436Z,91.90
2018-03-15T01:13:14.879Z,91.80
2018-03-15T01:15:42.318Z,92.00
2018-03-15T01:18:09.768Z,92.00
2018-03-15T01:20:37.210Z,92.00
2018-03-15T01:23:04.663Z,92.00
2018-03-15T01:25:32.110Z,91.80
2018-03-15T01:27:59.563Z,91.70
2018-03-15T01:30:27.008Z,91.90
2018-03-15T01:32:54.560Z,91.90
2018-03-15T01:35:21.996Z,92.10
2018-03-15T01:37:49.447Z,92.30
2018-03-15T01:40:16.895Z,92.10
2018-03-15T01:42:44.328Z,92.30
2018-03-15T01:45:11.781Z,92.60
2018-03-15T01:47:39.215Z,92.70
2018-03-15T01:50:06.673Z,92.60
2018-03-15T01:52:34.916Z,92.60
2018-03-15T01:55:02.364Z,92.70
2018-03-15T01:57:30.568Z,92.30
2018-03-15T01:59:58.034Z,92.30
2018-03-15T02:02:25.468Z,92.20
2018-03-15T02:04:52.904Z,91.70
2018-03-15T02:07:21.115Z,92.30
2018-03-15T02:09:48.557Z,92.20
2018-03-15T02:12:16.004Z,92.50
2018-03-15T02:14:43.455Z,92.70
2018-03-15T02:17:10.910Z,92.80
2018-03-15T02:19:38.339Z,92.40
2018-03-15T02:22:05.800Z,92.20
2018-03-15T02:24:33.245Z,92.30
2018-03-15T02:27:00.711Z,91.90
2018-03-15T02:29:28.165Z,91.70
2018-03-15T02:31:55.604Z,91.10
2018-03-15T02:34:23.064Z,91.10
2018-03-15T02:36:50.584Z,91.40
2018-03-15T02:39:18.012Z,91.20
2018-03-15T02:41:45.463Z,91.30
2018-03-15T02:44:12.903Z,91.00
2018-03-15T02:46:40.352Z,91.30
2018-03-15T02:49:07.807Z,90.90
2018-03-15T02:51:35.261Z,91.20
2018-03-15T02:54:02.693Z,91.40
2018-03-15T02:56:30.143Z,91.50
2018-03-15T02:58:57.704Z,91.40
2018-03-15T03:01:25.138Z,91.60
2018-03-15T03:03:52.581Z,91.00
2018-03-15T03:06:20.036Z,91.40
2018-03-15T03:08:47.479Z,91.60
2018-03-15T03:11:14.917Z,91.60
2018-03-15T03:13:42.376Z,91.90
2018-03-15T03:16:09.799Z,92.10
2018-03-15T03:18:37.273Z,91.90
2018-03-15T03:21:04.837Z,91.80
2018-03-15T03:23:32.259Z,92.00
2018-03-15T03:25:59.729Z,92.20
2018-03-15T03:28:27.933Z,92.30
2018-03-15T03:30:55.381Z,92.20
2018-03-15T03:33:22.802Z,92.30
2018-03-15T03:35:50.251Z,91.90
2018-03-15T03:38:17.689Z,91.80
2018-03-15T03:40:45.184Z,92.10
2018-03-15T03:43:12.615Z,92.10
2018-03-15T03:45:40.076Z,92.30
2018-03-15T03:48:07.525Z,91.50
2018-03-15T03:50:34.981Z,91.30
2018-03-15T03:53:02.435Z,91.60
2018-03-15T03:55:29.870Z,91.10
2018-03-15T03:57:57.312Z,91.30
2018-03-15T04:00:24.755Z,91.70
2018-03-15T04:02:52.187Z,91.50
2018-03-15T04:05:20.892Z,91.50
2018-03-15T04:07:48.336Z,91.50
2018-03-15T04:10:15.775Z,91.30
2018-03-15T04:12:43.220Z,91.40
2018-03-15T04:15:10.697Z,91.60
2018-03-15T04:17:38.116Z,91.10
2018-03-15T04:20:05.564Z,91.20
2018-03-15T04:22:33.008Z,91.20
2018-03-15T04:25:00.459Z,91.40
2018-03-15T04:27:28.002Z,91.50
2018-03-15T04:29:55.455Z,92.00
2018-03-15T04:32:23.656Z,92.00
2018-03-15T04:34:51.099Z,91.90
2018-03-15T04:37:18.563Z,91.50
2018-03-15T04:39:46.004Z,91.50
2018-03-15T04:42:13.468Z,91.50
2018-03-15T04:44:40.907Z,90.90
2018-03-15T04:47:08.329Z,91.60
2018-03-15T04:49:35.782Z,92.00
2018-03-15T04:52:03.226Z,91.90
2018-03-15T04:54:30.697Z,91.80
2018-03-15T04:56:58.149Z,91.60
2018-03-15T04:59:25.641Z,91.30
2018-03-15T05:01:53.069Z,91.20
2018-03-15T05:04:20.528Z,91.00
2018-03-15T05:06:47.970Z,90.80
2018-03-15T05:09:15.426Z,90.70
2018-03-15T05:11:42.855Z,90.60
2018-03-15T05:14:10.303Z,90.80
2018-03-15T05:16:37.768Z,90.70
2018-03-15T05:19:05.207Z,90.60
2018-03-15T05:21:33.416Z,90.50
2018-03-15T05:24:00.871Z,90.50
2018-03-15T05:26:28.324Z,90.40
2018-03-15T05:28:55.755Z,90.50
2018-03-15T05:31:23.204Z,90.10
2018-03-15T05:33:50.659Z,90.20
2018-03-15T05:36:18.100Z,89.60
2018-03-15T05:38:45.544Z,89.40
2018-03-15T05:41:13.755Z,89.40
2018-03-15T05:43:41.978Z,90.30
2018-03-15T05:46:09.412Z,90.60
2018-03-15T05:48:36.840Z,90.10
2018-03-15T05:51:04.280Z,90.10
2018-03-15T05:53:31.723Z,89.50
2018-03-15T05:55:59.180Z,89.70
2018-03-15T05:58:26.673Z,90.30
2018-03-15T06:00:54.093Z,90.70
2018-03-15T06:03:21.549Z,90.50
2018-03-15T06:05:48.976Z,88.10
2018-03-15T06:08:16.431Z,87.90
2018-03-15T06:10:43.875Z,88.50
2018-03-15T06:13:11.316Z,88.80
2018-03-15T06:15:39.523Z,89.90
2018-03-15T06:18:06.967Z,89.70
2018-03-15T06:20:34.399Z,88.40
2018-03-15T06:23:01.840Z,85.80
2018-03-15T06:25:29.272Z,87.20
2018-03-15T06:27:56.703Z,87.10
2018-03-15T06:30:24.129Z,86.20
2018-03-15T06:32:51.568Z,86.30
2018-03-15T06:35:19.004Z,87.40
2018-03-15T06:37:46.618Z,88.00
2018-03-15T06:40:14.092Z,88.50
2018-03-15T06:42:41.521Z,88.50
2018-03-15T06:45:08.954Z,88.60
2018-03-15T06:47:36.399Z,88.60
2018-03-15T06:50:03.852Z,86.90
2018-03-15T06:52:31.297Z,86.20
2018-03-15T06:54:58.743Z,85.90
2018-03-15T06:57:26.207Z,85.20
2018-03-15T06:59:53.664Z,84.80
2018-03-15T07:02:21.152Z,83.00
2018-03-15T07:04:48.625Z,83.30
2018-03-15T07:07:16.058Z,83.40
2018-03-15T07:09:43.500Z,82.50
2018-03-15T07:12:10.937Z,83.00
2018-03-15T07:14:38.376Z,82.10
2018-03-15T07:17:06.600Z,81.30
2018-03-15T07:19:34.056Z,81.30
2018-03-15T07:22:01.507Z,80.20
2018-03-15T07:24:28.973Z,78.60
2018-03-15T07:26:56.402Z,78.80
2018-03-15T07:29:23.847Z,77.30
2018-03-15T07:31:51.269Z,77.80
2018-03-15T07:34:18.716Z,78.40
2018-03-15T07:36:46.160Z,77.80
2018-03-15T07:39:13.608Z,78.40
2018-03-15T07:41:41.045Z,78.80
2018-03-15T07:44:08.605Z,79.50
2018-03-15T07:46:36.101Z,79.70
2018-03-15T07:49:03.520Z,79.70
2018-03-15T07:51:31.036Z,79.10
2018-03-15T07:53:58.517Z,79.20
2018-03-15T07:56:27.932Z,78.10
2018-03-15T07:58:55.380Z,78.30
2018-03-15T08:01:22.840Z,78.80
2018-03-15T08:03:50.306Z,78.50
2018-03-15T08:06:17.753Z,77.70
2018-03-15T08:08:46.027Z,77.10
2018-03-15T08:11:13.476Z,77.00
2018-03-15T08:13:40.962Z,76.30
2018-03-15T08:16:08.465Z,76.20
2018-03-15T08:18:35.913Z,74.20
2018-03-15T08:21:05.900Z,72.30
2018-03-15T08:23:33.366Z,70.10
2018-03-15T08:26:00.788Z,70.00
2018-03-15T08:28:29.027Z,68.20
2018-03-15T08:30:56.455Z,68.20
2018-03-15T08:33:23.941Z,67.60
2018-03-15T08:35:51.389Z,67.30
2018-03-15T08:38:18.859Z,68.10
2018-03-15T08:40:46.314Z,68.80
2018-03-15T08:43:13.806Z,68.90
2018-03-15T08:45:41.231Z,70.20
2018-03-15T08:48:08.677Z,71.30
2018-03-15T08:50:36.145Z,71.00
2018-03-15T08:53:03.592Z,70.50
2018-03-15T08:55:31.096Z,70.60
2018-03-15T08:57:58.624Z,69.50
2018-03-15T09:00:26.092Z,67.10
2018-03-15T09:02:54.370Z,66.00
2018-03-15T09:05:21.832Z,65.80
2018-03-15T09:07:50.050Z,64.50
2018-03-15T09:10:17.495Z,63.80
2018-03-15T09:12:45.044Z,64.00
2018-03-15T09:15:12.472Z,64.50
2018-03-15T09:17:39.928Z,64.50
2018-03-15T09:20:07.364Z,64.50
2018-03-15T09:22:34.820Z,63.90
2018-03-15T09:25:02.275Z,64.00
2018-03-15T09:27:29.723Z,62.80
2018-03-15T09:29:57.181Z,60.80
2018-03-15T09:32:24.680Z,61.40
2018-03-15T09:34:52.143Z,61.80
2018-03-15T09:37:19.633Z,62.10
2018-03-15T09:39:47.094Z,60.00
2018-03-15T09:42:14.536Z,61.10
2018-03-15T09:44:41.992Z,60.30
2018-03-15T09:47:09.448Z,59.80
2018-03-15T09:49:36.948Z,59.10
2018-03-15T09:52:04.416Z,57.50
2018-03-15T09:54:31.895Z,56.80
2018-03-15T09:56:59.358Z,57.70
2018-03-15T09:59:26.833Z,56.50
2018-03-15T10:01:55.127Z,56.50
2018-03-15T10:04:22.603Z,56.40
2018-03-15T10:06:50.054Z,55.60
2018-03-15T10:09:17.527Z,55.50
2018-03-15T10:11:44.974Z,56.20
2018-03-15T10:14:12.424Z,57.00
2018-03-15T10:16:40.664Z,54.70
2018-03-15T10:19:08.112Z,54.90
2018-03-15T10:21:36.403Z,57.10
2018-03-15T10:24:03.855Z,57.10
2018-03-15T10:26:31.303Z,56.90
2018-03-15T10:28:58.735Z,55.90
2018-03-15T10:31:26.213Z,54.90
2018-03-15T10:33:53.666Z,54.30
2018-03-15T10:36:21.124Z,53.70
2018-03-15T10:38:48.626Z,52.70
2018-03-15T10:41:16.090Z,51.40
2018-03-15T10:43:43.523Z,49.60
2018-03-15T10:46:10.952Z,49.00
2018-03-15T10:48:38.404Z,48.50
2018-03-15T10:51:05.844Z,47.00
2018-03-15T10:53:33.290Z,46.20
2018-03-15T10:56:00.764Z,44.70
2018-03-15T10:58:28.240Z,46.10
2018-03-15T11:01:01.260Z,45.30
2018-03-15T11:03:34.355Z,46.30
2018-03-15T11:06:07.400Z,44.50
2018-03-15T11:08:35.794Z,43.70
2018-03-15T11:11:03.268Z,41.20
2018-03-15T11:13:30.767Z,40.10
2018-03-15T11:15:58.224Z,37.20
2018-03-15T11:18:25.708Z,35.00
2018-03-15T11:20:53.193Z,33.80
2018-03-15T11:23:20.643Z,31.50
2018-03-15T11:25:48.078Z,30.40
2018-03-15T11:28:15.525Z,30.30
2018-03-15T11:30:42.974Z,28.30
2018-03-15T11:33:10.413Z,26.20
2018-03-15T11:35:37.866Z,24.70
2018-03-15T11:38:05.332Z,24.00
2018-03-15T11:40:32.767Z,25.10
2018-03-15T11:43:00.420Z,24.00
2018-03-15T11:45:27.893Z,23.50
2018-03-15T11:47:55.334Z,23.40
2018-03-15T11:50:22.900Z,22.60
2018-03-15T11:52:50.315Z,21.60
2018-03-15T11:55:17.772Z,21.50
2018-03-15T11:57:45.200Z,20.20
2018-03-15T12:00:12.661Z,19.70
2018-03-15T12:02:40.090Z,19.70
2018-03-15T12:05:07.619Z,18.90
2018-03-15T12:07:35.102Z,19.00
2018-03-15T12:10:02.497Z,18.60
2018-03-15T12:12:29.951Z,18.20
2018-03-15T12:14:57.410Z,18.10
2018-03-15T12:17:24.844Z,17.50
2018-03-15T12:19:52.291Z,17.50
2018-03-15T12:22:19.724Z,17.10
2018-03-15T12:24:47.163Z,18.00
2018-03-15T12:27:15.351Z,20.00
2018-03-15T12:29:42.818Z,19.90
2018-03-15T12:32:10.257Z,21.50
2018-03-15T12:34:37.707Z,20.30
2018-03-15T12:37:05.161Z,18.40
2018-03-15T12:39:32.596Z,18.30
2018-03-15T12:42:00.061Z,17.20
2018-03-15T12:44:27.503Z,17.50
2018-03-15T12:46:54.991Z,18.10
2018-03-15T12:49:22.491Z,18.90
2018-03-15T12:51:49.950Z,18.40
2018-03-15T12:54:17.412Z,18.10
2018-03-15T12:56:44.916Z,19.40
2018-03-15T12:59:12.368Z,20.20
2018-03-15T13:01:39.901Z,19.90
2018-03-15T13:04:07.388Z,20.60
2018-03-15T13:06:34.906Z,20.50
2018-03-15T13:09:02.593Z,20.30
2018-03-15T13:11:30.199Z,20.20
2018-03-15T13:13:58.492Z,19.30
2018-03-15T13:16:25.928Z,19.20
2018-03-15T13:18:53.350Z,19.20
2018-03-15T13:21:20.829Z,19.00
2018-03-15T13:23:48.270Z,19.30
2018-03-15T13:26:15.716Z,20.40
2018-03-15T13:28:43.172Z,21.10
2018-03-15T13:31:10.640Z,22.40
2018-03-15T13:33:38.134Z,24.30
2018-03-15T13:36:05.614Z,25.00
2018-03-15T13:38:33.071Z,25.20
2018-03-15T13:41:00.540Z,26.50
2018-03-15T13:43:28.002Z,27.80
2018-03-15T13:45:55.472Z,28.80
2018-03-15T13:48:22.919Z,30.00
2018-03-15T13:50:50.368Z,30.60
2018-03-15T13:53:17.815Z,31.90
2018-03-15T13:55:45.488Z,31.80
2018-03-15T13:58:12.966Z,32.10
2018-03-15T14:00:40.367Z,32.10
2018-03-15T14:03:07.852Z,33.00
2018-03-15T14:05:35.289Z,33.80
2018-03-15T14:08:02.764Z,33.70
2018-03-15T14:10:30.218Z,33.70
2018-03-15T14:12:57.672Z,34.90
2018-03-15T14:15:25.094Z,35.70
2018-03-15T14:17:52.640Z,36.00
2018-03-15T14:20:20.182Z,36.10
2018-03-15T14:22:47.639Z,37.00
2018-03-15T14:25:15.078Z,37.70
2018-03-15T14:27:42.541Z,38.30
2018-03-15T14:30:10.007Z,38.50
2018-03-15T14:32:37.435Z,38.50
2018-03-15T14:35:04.895Z,39.30
2018-03-15T14:37:32.361Z,40.20
2018-03-15T14:40:00.010Z,41.60
2018-03-15T14:42:27.466Z,42.20
2018-03-15T14:44:54.929Z,42.00
2018-03-15T14:47:22.365Z,42.90
2018-03-15T14:49:49.836Z,43.30
2018-03-15T14:52:17.276Z,43.80
2018-03-15T14:54:44.740Z,44.10
2018-03-15T14:57:12.208Z,44.40
2018-03-15T14:59:39.639Z,45.10
2018-03-15T15:02:07.294Z,45.20
2018-03-15T15:04:36.071Z,46.70
2018-03-15T15:07:03.524Z,46.40
2018-03-15T15:09:30.983Z,47.20
2018-03-15T15:11:58.449Z,47.70
2018-03-15T15:14:25.911Z,48.40
2018-03-15T15:16:53.407Z,49.20
2018-03-15T15:19:20.876Z,49.50
2018-03-15T15:21:48.296Z,49.70
2018-03-15T15:24:15.960Z,50.20
2018-03-15T15:26:43.420Z,50.60
2018-03-15T15:29:10.892Z,49.80
2018-03-15T15:31:38.357Z,49.10
2018-03-15T15:34:05.798Z,49.50
2018-03-15T15:36:33.255Z,50.30
2018-03-15T15:39:00.700Z,50.90
2018-03-15T15:41:28.140Z,51.10
2018-03-15T15:43:55.585Z,51.10
2018-03-15T15:46:23.065Z,51.30
2018-03-15T15:48:50.517Z,51.60
2018-03-15T15:51:17.951Z,51.50
2018-03-15T15:53:45.397Z,51.30
2018-03-15T15:56:12.872Z,51.50
2018-03-15T15:58:40.329Z,51.50
2018-03-15T16:01:07.807Z,52.30
2018-03-15T16:03:36.033Z,53.10
2018-03-15T16:06:03.552Z,53.00
2018-03-15T16:08:31.115Z,52.90
2018-03-15T16:10:58.585Z,53.60
2018-03-15T16:13:26.064Z,53.70
2018-03-15T16:15:53.595Z,54.10
2018-03-15T16:18:20.988Z,53.50
2018-03-15T16:20:48.429Z,53.10
2018-03-15T16:23:15.892Z,53.40
2018-03-15T16:25:43.409Z,53.60
2018-03-15T16:28:10.837Z,53.90
2018-03-15T16:30:38.284Z,53.40
2018-03-15T16:33:05.756Z,53.80
2018-03-15T16:35:33.216Z,54.00
2018-03-15T16:38:00.650Z,54.40
2018-03-15T16:40:28.108Z,54.50
2018-03-15T16:42:55.567Z,54.30
2018-03-15T16:45:22.998Z,54.40
2018-03-15T16:47:50.449Z,54.10
2018-03-15T16:50:17.892Z,54.40
2018-03-15T16:52:45.358Z,54.70
2018-03-15T16:55:12.776Z,55.10
2018-03-15T16:57:40.231Z,55.20
2018-03-15T17:00:08.466Z,55.90
2018-03-15T17:02:35.937Z,55.90
2018-03-15T17:05:03.393Z,56.50
2018-03-15T17:07:30.838Z,56.50
2018-03-15T17:09:58.280Z,56.50
2018-03-15T17:12:25.755Z,56.90
2018-03-15T17:14:53.352Z,57.20
2018-03-15T17:17:20.812Z,57.10
2018-03-15T17:19:48.292Z,57.30
2018-03-15T17:22:16.494Z,57.60
2018-03-15T17:24:43.949Z,57.60
2018-03-15T17:27:11.402Z,57.60
2018-03-15T17:29:38.860Z,58.10
2018-03-15T17:32:06.346Z,58.00
2018-03-15T17:34:33.829Z,58.10
2018-03-15T17:37:01.263Z,58.70
2018-03-15T17:39:28.704Z,59.00
2018-03-15T17:41:56.164Z,59.20
2018-03-15T17:44:23.604Z,59.60
2018-03-15T17:46:51.727Z,59.90
2018-03-15T17:49:19.162Z,59.70
2018-03-15T17:51:46.619Z,59.90
2018-03-15T17:54:14.073Z,60.10
2018-03-15T17:56:41.517Z,60.30
2018-03-15T17:59:10.696Z,60.60
2018-03-15T18:01:38.128Z,61.00
2018-03-15T18:04:05.586Z,61.00
2018-03-15T18:06:33.020Z,60.80
2018-03-15T18:09:01.239Z,60.90
2018-03-15T18:11:28.694Z,60.80
2018-03-15T18:13:56.127Z,60.90
2018-03-15T18:16:23.581Z,61.20
2018-03-15T18:18:51.036Z,61.80
2018-03-15T18:21:18.552Z,61.80
2018-03-15T18:23:45.937Z,61.70
2018-03-15T18:26:13.388Z,61.60
2018-03-15T18:28:40.884Z,61.40
2018-03-15T18:31:08.405Z,61.60
2018-03-15T18:33:35.834Z,61.80
2018-03-15T18:36:03.265Z,62.30
2018-03-15T18:38:30.726Z,63.50
2018-03-15T18:40:58.356Z,64.00
2018-03-15T18:43:25.808Z,64.20
2018-03-15T18:45:53.240Z,65.00
2018-03-15T18:48:20.701Z,65.70
2018-03-15T18:50:48.140Z,65.90
2018-03-15T18:53:15.595Z,65.60
2018-03-15T18:55:43.051Z,65.40
2018-03-15T18:58:10.501Z,65.10
2018-03-15T19:00:37.969Z,64.90
2018-03-15T19:03:05.459Z,64.60
2018-03-15T19:05:33.681Z,65.20
2018-03-15T19:08:01.115Z,65.10
2018-03-15T19:10:29.323Z,65.00
2018-03-15T19:12:56.775Z,64.80
2018-03-15T19:15:24.252Z,65.20
2018-03-15T19:17:51.706Z,65.30
2018-03-15T19:20:19.140Z,64.80
2018-03-15T19:22:46.598Z,64.60
2018-03-15T19:25:14.103Z,64.20
2018-03-15T19:27:41.547Z,63.90
2018-03-15T19:30:09.011Z,65.00
2018-03-15T19:32:36.471Z,66.10
2018-03-15T19:35:03.904Z,65.90
2018-03-15T19:37:31.348Z,66.20
2018-03-15T19:39:58.796Z,66.30
2018-03-15T19:42:26.227Z,66.10
2018-03-15T19:44:53.680Z,65.50
2018-03-15T19:47:21.235Z,65.20
2018-03-15T19:49:48.688Z,65.40
2018-03-15T19:52:16.128Z,65.70
2018-03-15T19:54:43.584Z,66.00
2018-03-15T19:57:11.039Z,66.00
2018-03-15T19:59:38.475Z,66.00
2018-03-15T20:02:05.928Z,66.00
2018-03-15T20:04:33.384Z,66.20
2018-03-15T20:07:00.828Z,65.80
2018-03-15T20:09:28.292Z,66.30
2018-03-15T20:11:55.715Z,65.90
2018-03-15T20:14:23.172Z,65.30
2018-03-15T20:16:50.630Z,65.30
2018-03-15T20:19:19.976Z,66.10
2018-03-15T20:21:47.425Z,66.10
2018-03-15T20:24:20.440Z,66.20
2018-03-15T20:26:47.876Z,66.30
2018-03-15T20:29:15.332Z,67.60
2018-03-15T20:31:42.854Z,68.10
2018-03-15T20:34:11.086Z,68.10
2018-03-15T20:36:38.523Z,68.90
2018-03-15T20:39:11.544Z,69.30
2018-03-15T20:41:39.744Z,69.50
2018-03-15T20:44:07.184Z,69.30
2018-03-15T20:46:40.308Z,70.00
2018-03-15T20:49:11.634Z,70.70
2018-03-15T20:51:39.083Z,70.80
2018-03-15T20:54:06.516Z,70.30
2018-03-15T20:56:33.963Z,69.80
2018-03-15T20:59:01.429Z,69.40
2018-03-15T21:01:28.865Z,69.40
2018-03-15T21:03:56.304Z,69.10
2018-03-15T21:06:23.754Z,68.90
2018-03-15T21:08:51.192Z,68.80
2018-03-15T21:11:19.197Z,68.50
2018-03-15T21:13:47.586Z,68.40
2018-03-15T21:16:15.018Z,68.40
2018-03-15T21:18:42.471Z,68.90
2018-03-15T21:21:09.912Z,68.60
2018-03-15T21:23:37.364Z,68.50
2018-03-15T21:26:04.799Z,68.60
2018-03-15T21:28:32.295Z,68.40
2018-03-15T21:30:59.688Z,68.50
2018-03-15T21:33:27.138Z,68.30
2018-03-15T21:35:54.566Z,67.80
2018-03-15T21:38:22.011Z,66.70
2018-03-15T21:40:49.455Z,66.20
2018-03-15T21:43:16.900Z,65.70
2018-03-15T21:45:45.096Z,64.80
2018-03-15T21:48:12.563Z,64.60
2018-03-15T21:50:40.016Z,64.40
2018-03-15T21:53:07.452Z,64.20
2018-03-15T21:55:34.889Z,62.90
2018-03-15T21:58:02.335Z,63.90
2018-03-15T22:00:29.768Z,62.50
2018-03-15T22:02:57.215Z,62.30
2018-03-15T22:05:24.671Z,63.50
2018-03-15T22:07:52.106Z,63.90
2018-03-15T22:10:19.560Z,64.10
2018-03-15T22:12:46.996Z,64.60
2018-03-15T22:15:14.449Z,64.90
2018-03-15T22:17:41.904Z,64.50
2018-03-15T22:20:09.363Z,64.40
2018-03-15T22:22:36.814Z,64.50
2018-03-15T22:25:04.268Z,64.20
2018-03-15T22:27:31.707Z,64.20
2018-03-15T22:29:59.137Z,64.00
2018-03-15T22:32:26.613Z,63.60
2018-03-15T22:34:54.027Z,63.50
2018-03-15T22:37:22.235Z,63.30
2018-03-15T22:39:49.687Z,63.30
2018-03-15T22:42:17.124Z,62.20
2018-03-15T22:44:44.564Z,62.00
2018-03-15T22:47:12.036Z,61.60
2018-03-15T22:49:39.484Z,60.80
2018-03-15T22:52:07.685Z,59.40
2018-03-15T22:54:35.112Z,60.20
2018-03-15T22:57:02.572Z,59.00
2018-03-15T22:59:30.010Z,59.10
2018-03-15T23:01:57.483Z,58.80
2018-03-15T23:04:25.783Z,59.20
2018-03-15T23:06:53.219Z,59.10
2018-03-15T23:09:20.656Z,59.50
2018-03-15T23:11:48.115Z,59.70
2018-03-15T23:14:15.548Z,59.90
2018-03-15T23:16:42.997Z,60.70
2018-03-15T23:19:10.440Z,61.40
2018-03-15T23:21:37.899Z,61.40
2018-03-15T23:24:05.327Z,62.00
2018-03-15T23:26:32.884Z,62.40
2018-03-15T23:29:00.347Z,62.40
2018-03-15T23:31:27.780Z,62.60
2018-03-15T23:33:55.229Z,63.50
2018-03-15T23:36:22.686Z,64.80
2018-03-15T23:38:50.130Z,65.80
2018-03-15T23:41:17.567Z,67.10
2018-03-15T23:43:45.004Z,69.00
2018-03-15T23:46:12.440Z,71.00
2018-03-15T23:48:39.988Z,71.50
2018-03-15T23:51:07.431Z,71.50
2018-03-15T23:53:34.858Z,71.70
2018-03-15T23:56:02.312Z,72.40
2018-03-15T23:58:29.743Z,73.40
